createdAt,value
2024-01-06T00:02:11.403Z,17.50
2024-01-06T00:04:38.129Z,19.02
2024-01-06T00:07:09.318Z,17.33
2024-01-06T00:09:36.472Z,15.70
2024-01-06T00:12:03.602Z,17.98
2024-01-06T00:14:30.386Z,15.07
2024-01-06T00:19:24.103Z,16.75
2024-01-06T00:21:51.630Z,15.88
2024-01-06T00:24:18.643Z,19.98
2024-01-06T00:29:13.078Z,15.38
2024-01-06T00:31:39.992Z,13.48
2024-01-06T00:34:07.137Z,14.55
2024-01-06T00:36:34.030Z,14.35
2024-01-06T00:39:01.140Z,13.00
2024-01-06T00:41:27.937Z,16.20
2024-01-06T00:46:21.683Z,13.68
2024-01-06T00:48:48.620Z,16.25
2024-01-06T00:51:15.545Z,16.30
2024-01-06T00:53:42.642Z,16.63
2024-01-06T01:03:47.593Z,12.80
2024-01-06T01:06:23.117Z,16.17
2024-01-06T01:08:50.240Z,13.85
2024-01-06T01:11:17.225Z,17.13
2024-01-06T01:13:44.300Z,17.65
2024-01-06T01:16:14.396Z,18.98
2024-01-06T01:18:43.903Z,16.85
2024-01-06T01:21:10.989Z,18.83
2024-01-06T01:23:37.858Z,19.75
2024-01-06T01:26:04.826Z,17.13
2024-01-06T01:28:32.002Z,23.35
2024-01-06T01:30:58.956Z,21.50
2024-01-06T01:33:26.688Z,17.40
2024-01-06T01:35:53.725Z,16.88
2024-01-06T01:40:51.554Z,23.33
2024-01-06T01:43:22.490Z,17.00
2024-01-06T01:45:55.514Z,21.23
2024-01-06T01:48:36.414Z,16.58
2024-01-06T01:51:03.817Z,21.55
2024-01-06T01:53:32.793Z,16.35
2024-01-06T01:55:59.890Z,18.15
2024-01-06T01:58:27.189Z,28.67
2024-01-06T02:00:54.718Z,19.73
2024-01-06T02:03:23.629Z,21.13
2024-01-06T02:05:50.774Z,22.42
2024-01-06T02:08:17.597Z,21.98
2024-01-06T02:10:47.475Z,32.75
2024-01-06T02:13:14.385Z,26.05
2024-01-06T02:18:08.725Z,20.08
2024-01-06T02:20:37.554Z,20.50
2024-01-06T02:23:04.907Z,18.08
2024-01-06T02:25:32.293Z,17.83
2024-01-06T02:27:59.110Z,16.73
2024-01-06T02:30:26.299Z,19.10
2024-01-06T02:32:53.948Z,15.45
2024-01-06T02:35:22.157Z,18.83
2024-01-06T02:37:48.926Z,20.30
2024-01-06T02:40:15.844Z,13.65
2024-01-06T02:45:10.830Z,16.45
2024-01-06T02:47:38.716Z,18.63
2024-01-06T02:50:10.105Z,16.42
2024-01-06T02:52:37.105Z,14.80
2024-01-06T02:57:32.090Z,15.10
2024-01-06T02:59:58.817Z,15.40
2024-01-06T03:02:25.804Z,16.92
2024-01-06T03:07:19.592Z,11.32
2024-01-06T03:09:46.860Z,16.60
2024-01-06T03:12:14.001Z,18.30
2024-01-06T03:14:40.867Z,20.75
2024-01-06T03:17:07.838Z,16.92
2024-01-06T03:19:35.170Z,13.02
2024-01-06T03:22:01.982Z,16.65
2024-01-06T03:26:55.601Z,15.23
2024-01-06T03:29:23.564Z,18.75
2024-01-06T03:31:50.570Z,22.63
2024-01-06T03:34:17.811Z,18.02
2024-01-06T03:36:44.702Z,15.23
2024-01-06T03:39:11.958Z,16.40
2024-01-06T03:41:38.901Z,18.10
2024-01-06T03:44:06.164Z,21.00
2024-01-06T03:46:34.835Z,17.63
2024-01-06T03:49:02.215Z,18.45
2024-01-06T03:51:29.532Z,24.33
2024-01-06T03:53:56.431Z,17.40
2024-01-06T03:58:50.162Z,19.85
2024-01-06T04:01:17.005Z,18.17
2024-01-06T04:03:43.988Z,20.60
2024-01-06T04:06:11.606Z,19.35
2024-01-06T04:08:40.251Z,16.75
2024-01-06T04:11:07.256Z,18.08
2024-01-06T04:13:33.992Z,18.67
2024-01-06T04:16:00.665Z,19.38
2024-01-06T04:18:27.775Z,18.80
2024-01-06T04:20:54.641Z,18.35
2024-01-06T04:25:52.973Z,18.15
2024-01-06T04:28:19.985Z,17.65
2024-01-06T04:30:46.961Z,18.55
2024-01-06T04:33:13.855Z,15.70
2024-01-06T04:35:40.719Z,18.88
2024-01-06T04:40:34.177Z,20.23
2024-01-06T04:43:01.392Z,20.42
2024-01-06T04:47:55.249Z,17.50
2024-01-06T04:50:23.432Z,18.52
2024-01-06T04:52:50.240Z,19.05
2024-01-06T04:57:43.764Z,16.05
2024-01-06T05:02:37.755Z,20.90
2024-01-06T05:05:04.930Z,17.73
2024-01-06T05:07:31.657Z,22.65
2024-01-06T05:09:58.399Z,16.38
2024-01-06T05:14:52.030Z,21.70
2024-01-06T05:17:18.835Z,16.38
2024-01-06T05:22:16.024Z,23.92
2024-01-06T05:24:42.972Z,25.80
2024-01-06T05:27:12.471Z,23.27
2024-01-06T05:29:40.708Z,23.70
2024-01-06T05:34:34.682Z,24.85
2024-01-06T05:37:01.659Z,26.60
2024-01-06T05:41:55.195Z,22.23
2024-01-06T05:46:48.656Z,26.85
2024-01-06T05:49:15.710Z,30.50
2024-01-06T05:51:46.732Z,25.45
2024-01-06T05:54:14.467Z,25.58
2024-01-06T05:56:41.543Z,25.15
2024-01-06T05:59:08.504Z,19.75
2024-01-06T06:01:35.495Z,22.77
2024-01-06T06:04:02.502Z,20.17
2024-01-06T06:06:29.605Z,21.23
2024-01-06T06:08:57.283Z,24.63
2024-01-06T06:11:24.106Z,26.30
2024-01-06T06:13:51.319Z,22.50
2024-01-06T06:16:18.169Z,24.70
2024-01-06T06:18:45.146Z,23.35
2024-01-06T06:21:12.058Z,26.15
2024-01-06T06:26:09.667Z,21.42
2024-01-06T06:28:36.724Z,20.80
2024-01-06T06:31:04.124Z,22.88
2024-01-06T06:33:31.930Z,27.10
2024-01-06T06:35:58.800Z,28.40
2024-01-06T06:40:53.850Z,30.27
2024-01-06T06:43:20.978Z,28.67
2024-01-06T06:45:47.872Z,22.25
2024-01-06T06:50:44.791Z,27.88
2024-01-06T06:53:11.667Z,26.13
2024-01-06T06:55:38.687Z,28.55
2024-01-06T06:58:07.027Z,29.70
2024-01-06T07:00:34.432Z,33.60
2024-01-06T07:03:01.792Z,32.60
2024-01-06T07:05:28.826Z,29.35
2024-01-06T07:07:56.186Z,34.78
2024-01-06T07:10:23.677Z,36.00
2024-01-06T07:12:50.446Z,30.48
2024-01-06T07:15:17.496Z,31.05
2024-01-06T07:17:44.682Z,28.80
2024-01-06T07:20:11.946Z,30.88
2024-01-06T07:22:38.836Z,33.80
2024-01-06T07:27:34.383Z,24.08
2024-01-06T07:30:02.260Z,31.30
2024-01-06T07:32:29.796Z,31.08
2024-01-06T07:34:56.808Z,34.88
2024-01-06T07:37:23.611Z,38.25
2024-01-06T07:39:50.524Z,39.20
2024-01-06T07:42:17.428Z,36.28
2024-01-06T07:44:44.177Z,33.63
2024-01-06T07:47:11.328Z,42.08
2024-01-06T07:49:38.370Z,36.47
2024-01-06T07:52:05.354Z,35.17
2024-01-06T07:54:32.596Z,35.13
2024-01-06T07:57:00.431Z,41.13
2024-01-06T07:59:28.968Z,43.00
2024-01-06T08:01:55.892Z,41.28
2024-01-06T08:04:22.813Z,37.22
2024-01-06T08:06:50.145Z,38.40
2024-01-06T08:09:17.586Z,32.13
2024-01-06T08:14:14.074Z,34.67
2024-01-06T08:16:40.849Z,33.80
2024-01-06T08:21:35.806Z,28.45
2024-01-06T08:24:03.511Z,31.88
2024-01-06T08:26:30.410Z,30.20
2024-01-06T08:28:59.329Z,26.88
2024-01-06T08:31:26.210Z,32.90
2024-01-06T08:33:53.582Z,29.88
2024-01-06T08:36:21.805Z,26.27
2024-01-06T08:38:48.606Z,35.88
2024-01-06T08:41:15.499Z,36.80
2024-01-06T08:46:08.874Z,47.38
2024-01-06T08:48:36.316Z,54.88
2024-01-06T08:51:03.666Z,48.08
2024-01-06T08:53:30.456Z,44.13
2024-01-06T08:55:57.289Z,32.03
2024-01-06T09:00:54.636Z,24.38
2024-01-06T09:03:27.666Z,26.42
2024-01-06T09:05:56.879Z,42.28
2024-01-06T09:08:25.974Z,63.10
2024-01-06T09:10:58.048Z,46.05
2024-01-06T09:13:25.232Z,41.13
2024-01-06T09:15:55.619Z,35.65
2024-01-06T09:18:22.650Z,34.42
2024-01-06T09:20:49.466Z,32.67
2024-01-06T09:25:44.195Z,36.40
2024-01-06T09:30:39.176Z,39.15
2024-01-06T09:33:06.371Z,46.65
2024-01-06T09:35:33.832Z,40.90
2024-01-06T09:38:00.848Z,27.08
2024-01-06T09:40:27.773Z,39.35
2024-01-06T09:42:56.228Z,41.15
2024-01-06T09:45:24.711Z,43.60
2024-01-06T09:47:53.087Z,41.72
2024-01-06T09:50:20.663Z,42.15
2024-01-06T09:52:55.017Z,35.60
2024-01-06T09:55:29.606Z,52.75
2024-01-06T09:57:56.737Z,43.30
2024-01-06T10:00:23.719Z,45.65
2024-01-06T10:02:52.359Z,52.13
2024-01-06T10:05:19.460Z,47.03
2024-01-06T10:07:46.757Z,47.10
2024-01-06T10:10:14.754Z,50.35
2024-01-06T10:12:43.168Z,41.55
2024-01-06T10:15:13.843Z,58.17
2024-01-06T10:17:41.541Z,50.17
2024-01-06T10:20:13.571Z,43.42
2024-01-06T10:22:43.306Z,46.28
2024-01-06T10:25:12.902Z,57.85
2024-01-06T10:27:40.768Z,53.67
2024-01-06T10:30:09.122Z,49.67
2024-01-06T10:32:37.625Z,42.75
2024-01-06T10:35:07.518Z,43.30
2024-01-06T10:37:34.435Z,53.63
2024-01-06T10:40:11.677Z,50.22
2024-01-06T10:42:42.963Z,46.90
2024-01-06T10:45:11.717Z,48.72
2024-01-06T10:47:39.955Z,55.15
2024-01-06T10:50:09.169Z,55.40
2024-01-06T10:52:36.796Z,60.80
2024-01-06T10:55:04.244Z,61.67
2024-01-06T10:57:33.141Z,43.85
2024-01-06T11:00:00.881Z,47.90
2024-01-06T11:02:30.166Z,49.08
2024-01-06T11:04:57.073Z,47.88
2024-01-06T11:07:27.268Z,50.00
2024-01-06T11:09:59.802Z,55.70
2024-01-06T11:12:27.736Z,49.88
2024-01-06T11:14:55.500Z,50.40
2024-01-06T11:17:56.614Z,49.17
2024-01-06T11:20:24.218Z,49.60
2024-01-06T11:22:53.709Z,61.60
2024-01-06T11:25:23.088Z,57.42
2024-01-06T11:27:52.588Z,53.40
2024-01-06T11:30:35.129Z,55.40
2024-01-06T11:33:06.052Z,60.38
2024-01-06T11:35:32.939Z,53.63
2024-01-06T11:38:05.240Z,57.22
2024-01-06T11:40:35.213Z,50.67
2024-01-06T11:43:10.784Z,53.58
2024-01-06T11:45:41.464Z,47.38
2024-01-06T11:48:10.836Z,53.92
2024-01-06T11:50:40.097Z,58.42
2024-01-06T11:53:08.816Z,56.63
2024-01-06T11:55:36.215Z,51.58
2024-01-06T11:58:11.752Z,51.90
2024-01-06T12:00:40.848Z,50.53
2024-01-06T12:03:08.402Z,50.92
2024-01-06T12:05:35.572Z,56.78
2024-01-06T12:08:09.439Z,48.58
2024-01-06T12:10:38.009Z,59.83
2024-01-06T12:13:09.673Z,55.03
2024-01-06T12:15:40.964Z,40.88
2024-01-06T12:18:08.794Z,48.88
2024-01-06T12:20:35.918Z,48.38
2024-01-06T12:23:07.468Z,52.00
2024-01-06T12:25:39.961Z,60.80
2024-01-06T12:28:12.462Z,66.30
2024-01-06T12:30:40.417Z,61.55
2024-01-06T12:33:08.473Z,63.03
2024-01-06T12:35:35.856Z,54.17
2024-01-06T12:40:34.043Z,50.80
2024-01-06T12:45:29.121Z,56.05
2024-01-06T12:47:56.031Z,55.95
2024-01-06T12:50:22.892Z,55.15
2024-01-06T12:52:49.836Z,54.75
2024-01-06T12:55:16.868Z,58.58
2024-01-06T12:57:44.340Z,55.28
2024-01-06T13:00:13.397Z,59.90
2024-01-06T13:03:00.478Z,61.10
2024-01-06T13:05:34.876Z,56.83
2024-01-06T13:08:03.144Z,58.25
2024-01-06T13:10:29.929Z,62.33
2024-01-06T13:12:56.707Z,57.40
2024-01-06T13:17:52.790Z,55.85
2024-01-06T13:20:19.819Z,58.53
2024-01-06T13:25:14.240Z,47.20
2024-01-06T13:27:41.184Z,53.65
2024-01-06T13:30:08.624Z,52.30
2024-01-06T13:32:35.584Z,55.17
2024-01-06T13:35:05.353Z,51.15
2024-01-06T13:37:34.953Z,50.65
2024-01-06T13:40:01.729Z,49.30
2024-01-06T13:42:28.686Z,51.63
2024-01-06T13:44:55.478Z,53.10
2024-01-06T13:47:22.601Z,57.17
2024-01-06T13:49:49.568Z,57.47
2024-01-06T13:52:16.513Z,57.88
2024-01-06T13:54:43.293Z,59.10
2024-01-06T13:57:10.017Z,56.55
2024-01-06T14:02:08.828Z,46.10
2024-01-06T14:04:35.913Z,46.47
2024-01-06T14:07:05.329Z,45.92
2024-01-06T14:09:33.181Z,44.75
2024-01-06T14:12:00.237Z,44.17
2024-01-06T14:16:54.576Z,44.17
2024-01-06T14:19:21.319Z,41.00
2024-01-06T14:21:48.121Z,50.25
2024-01-06T14:24:15.014Z,50.25
2024-01-06T14:26:43.615Z,45.55
2024-01-06T14:29:10.633Z,40.50
2024-01-06T14:31:37.578Z,44.65
2024-01-06T14:34:04.561Z,43.65
2024-01-06T14:36:31.606Z,43.78
2024-01-06T14:38:58.369Z,43.08
2024-01-06T14:43:51.809Z,42.47
2024-01-06T14:48:46.707Z,51.47
2024-01-06T14:51:13.706Z,54.50
2024-01-06T14:53:40.399Z,50.00
2024-01-06T14:58:34.077Z,57.83
2024-01-06T15:01:01.049Z,69.38
2024-01-06T15:03:28.066Z,76.03
2024-01-06T15:05:54.962Z,70.40
2024-01-06T15:08:21.758Z,68.80
2024-01-06T15:13:15.059Z,57.45
2024-01-06T15:18:09.883Z,50.88
2024-01-06T15:20:36.696Z,51.63
2024-01-06T15:25:30.118Z,41.47
2024-01-06T15:30:25.081Z,46.75
2024-01-06T15:32:51.915Z,47.08
2024-01-06T15:35:20.046Z,38.05
2024-01-06T15:37:48.267Z,37.78
2024-01-06T15:40:17.291Z,42.50
2024-01-06T15:42:44.637Z,47.65
2024-01-06T15:45:12.770Z,55.72
2024-01-06T15:47:39.906Z,69.38
2024-01-06T15:50:10.098Z,63.17
2024-01-06T15:52:38.183Z,55.30
2024-01-06T15:55:05.435Z,68.35
2024-01-06T15:57:34.304Z,55.10
2024-01-06T16:00:01.068Z,54.08
2024-01-06T16:04:58.610Z,41.60
2024-01-06T16:07:25.626Z,38.47
2024-01-06T16:09:52.392Z,35.72
2024-01-06T16:14:46.137Z,38.00
2024-01-06T16:17:12.865Z,41.30
2024-01-06T16:19:40.358Z,36.22
2024-01-06T16:22:14.812Z,41.45
2024-01-06T16:24:44.878Z,34.00
2024-01-06T16:27:11.788Z,40.20
2024-01-06T16:29:39.946Z,36.83
2024-01-06T16:32:07.270Z,43.38
2024-01-06T16:34:35.166Z,50.33
2024-01-06T16:37:02.171Z,46.67
2024-01-06T16:39:30.618Z,43.78
2024-01-06T16:41:58.597Z,44.20
2024-01-06T16:44:25.955Z,41.90
2024-01-06T16:46:52.783Z,43.72
2024-01-06T16:49:19.756Z,48.35
2024-01-06T16:54:13.473Z,48.85
2024-01-06T16:59:07.715Z,45.70
2024-01-06T17:01:34.580Z,44.10
2024-01-06T17:04:01.642Z,38.35
2024-01-06T17:06:28.388Z,37.53
2024-01-06T17:11:22.418Z,33.20
2024-01-06T17:13:49.338Z,38.15
2024-01-06T17:16:16.149Z,42.08
2024-01-06T17:21:16.103Z,35.08
2024-01-06T17:26:11.160Z,33.78
2024-01-06T17:28:38.140Z,29.45
2024-01-06T17:31:05.299Z,31.77
2024-01-06T17:33:32.257Z,30.88
2024-01-06T17:35:59.126Z,39.80
2024-01-06T17:38:25.893Z,34.95
2024-01-06T17:43:19.501Z,32.35
2024-01-06T17:45:46.326Z,33.40
2024-01-06T17:48:13.409Z,38.10
2024-01-06T17:50:40.147Z,43.03
2024-01-06T17:55:34.723Z,39.75
2024-01-06T17:58:01.578Z,36.50
2024-01-06T18:02:55.586Z,42.00
2024-01-06T18:05:22.925Z,34.05
2024-01-06T18:07:49.781Z,41.78
2024-01-06T18:10:16.867Z,37.33
2024-01-06T18:12:44.195Z,39.63
2024-01-06T18:15:11.442Z,38.72
2024-01-06T18:17:42.778Z,40.58
2024-01-06T18:20:10.492Z,36.30
2024-01-06T18:22:37.378Z,40.75
2024-01-06T18:25:04.590Z,38.97
2024-01-06T18:27:31.674Z,38.03
2024-01-06T18:29:58.766Z,40.10
2024-01-06T18:32:25.630Z,38.20
2024-01-06T18:37:19.727Z,34.30
2024-01-06T18:39:46.632Z,36.90
2024-01-06T18:42:19.024Z,35.10
2024-01-06T18:47:15.454Z,35.22
2024-01-06T18:49:42.805Z,36.72
2024-01-06T18:52:09.829Z,34.97
2024-01-06T18:54:42.170Z,40.60
2024-01-06T18:57:13.183Z,35.40
2024-01-06T18:59:40.077Z,40.65
2024-01-06T19:02:08.286Z,39.58
2024-01-06T19:04:35.471Z,37.40
2024-01-06T19:07:02.431Z,41.38
2024-01-06T19:09:29.799Z,42.83
2024-01-06T19:11:59.775Z,45.47
2024-01-06T19:14:26.461Z,38.75
2024-01-06T19:19:22.560Z,35.70
2024-01-06T19:21:51.102Z,35.70
2024-01-06T19:24:27.647Z,40.35
2024-01-06T19:27:00.557Z,38.25
2024-01-06T19:29:27.753Z,44.63
2024-01-06T19:31:54.941Z,40.03
2024-01-06T19:34:23.081Z,43.25
2024-01-06T19:36:49.939Z,44.75
2024-01-06T19:41:43.381Z,42.33
2024-01-06T19:44:10.790Z,39.53
2024-01-06T19:46:37.790Z,44.53
2024-01-06T19:49:04.901Z,41.28
2024-01-06T19:51:31.989Z,43.28
2024-01-06T19:53:58.754Z,46.38
2024-01-06T19:56:25.533Z,42.58
2024-01-06T20:01:18.975Z,35.17
2024-01-06T20:03:45.993Z,39.05
2024-01-06T20:06:14.405Z,39.28
2024-01-06T20:08:41.172Z,46.08
2024-01-06T20:11:07.908Z,43.35
2024-01-06T20:16:02.767Z,38.00
2024-01-06T20:18:31.116Z,37.88
2024-01-06T20:20:59.160Z,40.40
2024-01-06T20:23:26.009Z,41.47
2024-01-06T20:28:20.230Z,42.15
2024-01-06T20:33:16.307Z,36.97
2024-01-06T20:35:43.901Z,38.10
2024-01-06T20:38:10.663Z,44.58
2024-01-06T20:40:37.460Z,41.65
2024-01-06T20:45:31.069Z,35.92
2024-01-06T20:50:24.597Z,45.28
2024-01-06T20:55:18.220Z,37.10
2024-01-06T20:57:45.077Z,43.70
2024-01-06T21:00:12.060Z,45.30
2024-01-06T21:02:38.739Z,52.33
2024-01-06T21:05:06.195Z,43.53
2024-01-06T21:07:33.071Z,52.40
2024-01-06T21:10:04.496Z,46.67
2024-01-06T21:12:36.255Z,48.35
2024-01-06T21:15:03.770Z,48.83
2024-01-06T21:17:30.581Z,52.88
2024-01-06T21:19:57.682Z,49.70
2024-01-06T21:22:24.358Z,49.08
2024-01-06T21:24:52.521Z,49.10
2024-01-06T21:27:19.503Z,46.92
2024-01-06T21:29:46.240Z,52.00
2024-01-06T21:32:12.948Z,47.83
2024-01-06T21:34:39.705Z,51.75
2024-01-06T21:37:06.558Z,50.97
2024-01-06T21:42:00.978Z,47.28
2024-01-06T21:44:27.705Z,46.03
2024-01-06T21:46:54.386Z,52.08
2024-01-06T21:49:21.478Z,65.22
2024-01-06T21:51:54.872Z,61.40
2024-01-06T21:54:21.937Z,56.38
2024-01-06T21:56:49.009Z,49.83
2024-01-06T21:59:15.831Z,52.25
2024-01-06T22:04:13.553Z,51.60
2024-01-06T22:06:40.396Z,58.95
2024-01-06T22:09:11.310Z,57.80
2024-01-06T22:11:40.385Z,48.30
2024-01-06T22:14:07.308Z,45.40
2024-01-06T22:16:34.265Z,52.58
2024-01-06T22:19:01.069Z,48.63
2024-01-06T22:24:01.004Z,49.85
2024-01-06T22:26:29.348Z,52.42
2024-01-06T22:28:59.519Z,46.55
2024-01-06T22:31:27.221Z,53.65
2024-01-06T22:33:54.312Z,58.03
2024-01-06T22:36:21.118Z,52.38
2024-01-06T22:41:23.306Z,39.28
2024-01-06T22:43:50.219Z,44.20
2024-01-06T22:46:17.007Z,47.75
2024-01-06T22:51:11.933Z,38.90
2024-01-06T22:53:38.932Z,49.38
2024-01-06T22:56:05.761Z,47.78
2024-01-06T23:01:01.284Z,42.97
2024-01-06T23:03:28.540Z,48.50
2024-01-06T23:05:55.571Z,43.38
2024-01-06T23:08:22.297Z,42.78
2024-01-06T23:13:16.510Z,57.50
2024-01-06T23:18:10.748Z,43.55
2024-01-06T23:20:37.580Z,42.65
2024-01-06T23:25:31.176Z,41.63
2024-01-06T23:27:57.907Z,57.58
2024-01-06T23:32:51.744Z,50.58
2024-01-06T23:35:18.792Z,49.25
2024-01-06T23:37:49.003Z,54.15
2024-01-06T23:40:15.835Z,36.22
2024-01-06T23:42:42.657Z,43.60
2024-01-06T23:47:36.382Z,36.40
2024-01-06T23:52:31.162Z,41.00
2024-01-06T23:57:24.576Z,36.38
2024-01-06T23:59:51.275Z,35.92
